sensor_id;sensor_type;location;lat;lon;timestamp;P1;durP1;ratioP1;P2;durP2;ratioP2
1174;SDS011;576;48.418;10.074;2022-12-26T00:01:19;2.53;;;2.10;;
1174;SDS011;576;48.418;10.074;2022-12-26T00:03:51;1.93;;;1.83;;
1174;SDS011;576;48.418;10.074;2022-12-26T00:06:20;2.03;;;1.93;;
1174;SDS011;576;48.418;10.074;2022-12-26T00:08:51;2.37;;;2.17;;
1174;SDS011;576;48.418;10.074;2022-12-26T00:11:20;2.10;;;2.00;;
1174;SDS011;576;48.418;10.074;2022-12-26T00:13:52;1.97;;;1.87;;
1174;SDS011;576;48.418;10.074;2022-12-26T00:16:20;2.03;;;1.90;;
1174;SDS011;576;48.418;10.074;2022-12-26T00:18:49;3.10;;;2.30;;
1174;SDS011;576;48.418;10.074;2022-12-26T00:21:19;2.80;;;1.90;;
1174;SDS011;576;48.418;10.074;2022-12-26T00:23:49;1.90;;;1.80;;
1174;SDS011;576;48.418;10.074;2022-12-26T00:26:18;3.10;;;1.63;;
1174;SDS011;576;48.418;10.074;2022-12-26T00:28:47;2.50;;;2.30;;
1174;SDS011;576;48.418;10.074;2022-12-26T00:31:17;4.50;;;1.80;;
1174;SDS011;576;48.418;10.074;2022-12-26T00:33:46;2.33;;;2.23;;
1174;SDS011;576;48.418;10.074;2022-12-26T00:36:18;3.07;;;2.40;;
1174;SDS011;576;48.418;10.074;2022-12-26T00:38:47;2.57;;;2.37;;
1174;SDS011;576;48.418;10.074;2022-12-26T00:41:16;2.03;;;1.93;;
1174;SDS011;576;48.418;10.074;2022-12-26T00:43:46;1.80;;;1.70;;
1174;SDS011;576;48.418;10.074;2022-12-26T00:46:15;1.93;;;1.80;;
1174;SDS011;576;48.418;10.074;2022-12-26T00:48:43;2.10;;;2.00;;
1174;SDS011;576;48.418;10.074;2022-12-26T00:51:12;1.97;;;1.80;;
1174;SDS011;576;48.418;10.074;2022-12-26T00:53:42;2.00;;;1.90;;
1174;SDS011;576;48.418;10.074;2022-12-26T00:56:10;3.40;;;2.40;;
1174;SDS011;576;48.418;10.074;2022-12-26T00:58:39;2.00;;;1.90;;
1174;SDS011;576;48.418;10.074;2022-12-26T01:01:08;1.63;;;1.53;;
1174;SDS011;576;48.418;10.074;2022-12-26T01:03:40;2.33;;;2.13;;
1174;SDS011;576;48.418;10.074;2022-12-26T01:06:08;1.80;;;1.70;;
1174;SDS011;576;48.418;10.074;2022-12-26T01:08:36;2.20;;;2.10;;
1174;SDS011;576;48.418;10.074;2022-12-26T01:11:07;2.13;;;2.03;;
1174;SDS011;576;48.418;10.074;2022-12-26T01:13:37;2.47;;;2.27;;
1174;SDS011;576;48.418;10.074;2022-12-26T01:16:06;2.20;;;2.10;;
1174;SDS011;576;48.418;10.074;2022-12-26T01:18:34;2.67;;;2.47;;
1174;SDS011;576;48.418;10.074;2022-12-26T01:21:03;2.83;;;2.60;;
1174;SDS011;576;48.418;10.074;2022-12-26T01:23:33;2.67;;;2.47;;
1174;SDS011;576;48.418;10.074;2022-12-26T01:26:03;2.13;;;2.03;;
1174;SDS011;576;48.418;10.074;2022-12-26T01:28:47;2.37;;;2.17;;
1174;SDS011;576;48.418;10.074;2022-12-26T01:31:15;1.87;;;1.77;;
1174;SDS011;576;48.418;10.074;2022-12-26T01:33:44;1.67;;;1.57;;
1174;SDS011;576;48.418;10.074;2022-12-26T01:36:12;2.10;;;2.00;;
1174;SDS011;576;48.418;10.074;2022-12-26T01:38:40;2.60;;;1.70;;
1174;SDS011;576;48.418;10.074;2022-12-26T01:41:08;1.90;;;1.80;;
1174;SDS011;576;48.418;10.074;2022-12-26T01:43:50;2.10;;;2.00;;
1174;SDS011;576;48.418;10.074;2022-12-26T01:46:21;1.90;;;1.80;;
1174;SDS011;576;48.418;10.074;2022-12-26T01:48:54;2.47;;;2.30;;
1174;SDS011;576;48.418;10.074;2022-12-26T01:51:25;1.70;;;1.60;;
1174;SDS011;576;48.418;10.074;2022-12-26T01:53:56;1.80;;;1.70;;
1174;SDS011;576;48.418;10.074;2022-12-26T01:56:46;1.60;;;1.50;;
1174;SDS011;576;48.418;10.074;2022-12-26T01:59:17;2.30;;;2.10;;
1174;SDS011;576;48.418;10.074;2022-12-26T02:01:47;2.77;;;2.20;;
1174;SDS011;576;48.418;10.074;2022-12-26T02:04:21;1.70;;;1.60;;
1174;SDS011;576;48.418;10.074;2022-12-26T02:07:11;2.03;;;1.80;;
1174;SDS011;576;48.418;10.074;2022-12-26T02:09:39;1.90;;;1.80;;
1174;SDS011;576;48.418;10.074;2022-12-26T02:12:08;2.07;;;1.97;;
1174;SDS011;576;48.418;10.074;2022-12-26T02:15:02;1.70;;;1.60;;
1174;SDS011;576;48.418;10.074;2022-12-26T02:17:32;2.17;;;2.07;;
1174;SDS011;576;48.418;10.074;2022-12-26T02:20:03;1.93;;;1.83;;
1174;SDS011;576;48.418;10.074;2022-12-26T02:31:47;1.80;;;1.70;;
1174;SDS011;576;48.418;10.074;2022-12-26T02:34:21;1.90;;;1.80;;
1174;SDS011;576;48.418;10.074;2022-12-26T02:37:00;2.03;;;1.93;;
1174;SDS011;576;48.418;10.074;2022-12-26T02:39:51;1.87;;;1.77;;
1174;SDS011;576;48.418;10.074;2022-12-26T02:42:40;1.70;;;1.60;;
1174;SDS011;576;48.418;10.074;2022-12-26T02:45:22;2.50;;;2.30;;
1174;SDS011;576;48.418;10.074;2022-12-26T02:48:18;1.97;;;1.87;;
1174;SDS011;576;48.418;10.074;2022-12-26T02:50:52;2.03;;;1.93;;
1174;SDS011;576;48.418;10.074;2022-12-26T02:53:51;1.90;;;1.80;;
1174;SDS011;576;48.418;10.074;2022-12-26T02:56:45;2.00;;;1.90;;
1174;SDS011;576;48.418;10.074;2022-12-26T02:59:39;2.20;;;2.07;;
1174;SDS011;576;48.418;10.074;2022-12-26T03:02:34;1.80;;;1.70;;
1174;SDS011;576;48.418;10.074;2022-12-26T03:05:26;2.30;;;2.10;;
1174;SDS011;576;48.418;10.074;2022-12-26T03:08:17;1.77;;;1.50;;
1174;SDS011;576;48.418;10.074;2022-12-26T03:11:08;1.33;;;1.33;;
1174;SDS011;576;48.418;10.074;2022-12-26T03:13:54;1.90;;;1.80;;
1174;SDS011;576;48.418;10.074;2022-12-26T03:16:29;2.00;;;1.90;;
1174;SDS011;576;48.418;10.074;2022-12-26T03:19:15;1.67;;;1.57;;
1174;SDS011;576;48.418;10.074;2022-12-26T03:21:46;2.10;;;1.90;;
1174;SDS011;576;48.418;10.074;2022-12-26T03:24:15;2.03;;;1.93;;
1174;SDS011;576;48.418;10.074;2022-12-26T03:26:46;1.63;;;1.53;;
1174;SDS011;576;48.418;10.074;2022-12-26T03:29:18;1.97;;;1.60;;
1174;SDS011;576;48.418;10.074;2022-12-26T03:32:07;2.33;;;2.13;;
1174;SDS011;576;48.418;10.074;2022-12-26T03:34:39;2.07;;;1.97;;
1174;SDS011;576;48.418;10.074;2022-12-26T03:37:29;1.97;;;1.87;;
1174;SDS011;576;48.418;10.074;2022-12-26T03:40:28;1.77;;;1.67;;
1174;SDS011;576;48.418;10.074;2022-12-26T03:43:36;1.63;;;1.53;;
1174;SDS011;576;48.418;10.074;2022-12-26T03:46:39;1.10;;;1.10;;
1174;SDS011;576;48.418;10.074;2022-12-26T03:49:34;1.53;;;1.43;;
1174;SDS011;576;48.418;10.074;2022-12-26T03:52:25;1.80;;;1.70;;
1174;SDS011;576;48.418;10.074;2022-12-26T03:55:21;1.80;;;1.70;;
1174;SDS011;576;48.418;10.074;2022-12-26T03:58:12;1.63;;;1.53;;
1174;SDS011;576;48.418;10.074;2022-12-26T04:01:01;1.60;;;1.50;;
1174;SDS011;576;48.418;10.074;2022-12-26T04:03:52;1.50;;;1.40;;
1174;SDS011;576;48.418;10.074;2022-12-26T04:06:42;1.60;;;1.50;;
1174;SDS011;576;48.418;10.074;2022-12-26T04:09:35;1.60;;;1.50;;
1174;SDS011;576;48.418;10.074;2022-12-26T04:12:25;1.50;;;1.40;;
1174;SDS011;576;48.418;10.074;2022-12-26T04:15:15;1.40;;;1.30;;
1174;SDS011;576;48.418;10.074;2022-12-26T04:18:07;1.73;;;1.63;;
1174;SDS011;576;48.418;10.074;2022-12-26T04:21:03;1.10;;;1.00;;
1174;SDS011;576;48.418;10.074;2022-12-26T04:23:59;1.60;;;1.50;;
1174;SDS011;576;48.418;10.074;2022-12-26T04:26:51;1.53;;;1.43;;
1174;SDS011;576;48.418;10.074;2022-12-26T04:29:40;1.97;;;1.87;;
1174;SDS011;576;48.418;10.074;2022-12-26T04:32:28;1.20;;;1.20;;
1174;SDS011;576;48.418;10.074;2022-12-26T04:35:19;2.10;;;2.00;;
1174;SDS011;576;48.418;10.074;2022-12-26T04:38:09;1.40;;;1.30;;
1174;SDS011;576;48.418;10.074;2022-12-26T04:41:00;1.80;;;1.70;;
1174;SDS011;576;48.418;10.074;2022-12-26T04:43:49;1.50;;;1.40;;
1174;SDS011;576;48.418;10.074;2022-12-26T04:46:32;1.60;;;1.27;;
1174;SDS011;576;48.418;10.074;2022-12-26T04:49:04;1.40;;;1.40;;
1174;SDS011;576;48.418;10.074;2022-12-26T04:51:50;1.70;;;1.60;;
1174;SDS011;576;48.418;10.074;2022-12-26T04:54:20;1.30;;;1.30;;
1174;SDS011;576;48.418;10.074;2022-12-26T04:56:49;1.43;;;1.33;;
1174;SDS011;576;48.418;10.074;2022-12-26T04:59:19;1.73;;;1.50;;
1174;SDS011;576;48.418;10.074;2022-12-26T05:01:48;1.50;;;1.40;;
1174;SDS011;576;48.418;10.074;2022-12-26T05:04:36;1.67;;;1.57;;
1174;SDS011;576;48.418;10.074;2022-12-26T05:07:23;1.40;;;1.30;;
1174;SDS011;576;48.418;10.074;2022-12-26T05:10:12;1.20;;;1.20;;
1174;SDS011;576;48.418;10.074;2022-12-26T05:12:44;1.00;;;1.00;;
1174;SDS011;576;48.418;10.074;2022-12-26T05:15:13;1.40;;;1.30;;
1174;SDS011;576;48.418;10.074;2022-12-26T05:17:42;1.70;;;1.60;;
1174;SDS011;576;48.418;10.074;2022-12-26T05:20:28;1.30;;;1.30;;
1174;SDS011;576;48.418;10.074;2022-12-26T05:23:15;1.40;;;1.30;;
1174;SDS011;576;48.418;10.074;2022-12-26T05:26:03;1.10;;;1.10;;
1174;SDS011;576;48.418;10.074;2022-12-26T05:28:53;1.10;;;1.10;;
1174;SDS011;576;48.418;10.074;2022-12-26T05:31:24;1.23;;;1.23;;
1174;SDS011;576;48.418;10.074;2022-12-26T05:34:01;1.33;;;1.33;;
1174;SDS011;576;48.418;10.074;2022-12-26T05:36:33;1.90;;;1.80;;
1174;SDS011;576;48.418;10.074;2022-12-26T05:39:04;1.33;;;1.23;;
1174;SDS011;576;48.418;10.074;2022-12-26T05:41:33;1.43;;;1.37;;
1174;SDS011;576;48.418;10.074;2022-12-26T05:44:02;1.60;;;1.50;;
1174;SDS011;576;48.418;10.074;2022-12-26T05:46:31;1.30;;;1.30;;
1174;SDS011;576;48.418;10.074;2022-12-26T05:49:00;1.37;;;1.27;;
1174;SDS011;576;48.418;10.074;2022-12-26T05:51:29;1.33;;;1.23;;
1174;SDS011;576;48.418;10.074;2022-12-26T05:53:57;1.80;;;1.70;;
1174;SDS011;576;48.418;10.074;2022-12-26T05:56:26;1.70;;;1.60;;
1174;SDS011;576;48.418;10.074;2022-12-26T05:58:54;1.30;;;1.30;;
1174;SDS011;576;48.418;10.074;2022-12-26T06:01:24;1.50;;;1.40;;
1174;SDS011;576;48.418;10.074;2022-12-26T06:03:56;1.93;;;1.83;;
1174;SDS011;576;48.418;10.074;2022-12-26T06:06:26;1.57;;;1.47;;
1174;SDS011;576;48.418;10.074;2022-12-26T06:08:55;1.60;;;1.50;;
1174;SDS011;576;48.418;10.074;2022-12-26T06:11:25;1.37;;;1.37;;
1174;SDS011;576;48.418;10.074;2022-12-26T06:13:53;1.53;;;1.33;;
1174;SDS011;576;48.418;10.074;2022-12-26T06:16:21;2.17;;;1.70;;
1174;SDS011;576;48.418;10.074;2022-12-26T06:18:50;1.40;;;1.30;;
1174;SDS011;576;48.418;10.074;2022-12-26T06:21:21;1.57;;;1.47;;
1174;SDS011;576;48.418;10.074;2022-12-26T06:23:50;1.40;;;1.30;;
1174;SDS011;576;48.418;10.074;2022-12-26T06:26:18;1.97;;;1.87;;
1174;SDS011;576;48.418;10.074;2022-12-26T06:28:46;1.57;;;1.43;;
1174;SDS011;576;48.418;10.074;2022-12-26T06:31:16;1.50;;;1.40;;
1174;SDS011;576;48.418;10.074;2022-12-26T06:33:47;1.50;;;1.40;;
1174;SDS011;576;48.418;10.074;2022-12-26T06:36:17;1.47;;;1.37;;
1174;SDS011;576;48.418;10.074;2022-12-26T06:38:48;1.67;;;1.53;;
1174;SDS011;576;48.418;10.074;2022-12-26T06:41:18;0.90;;;0.90;;
1174;SDS011;576;48.418;10.074;2022-12-26T06:43:47;1.23;;;1.23;;
1174;SDS011;576;48.418;10.074;2022-12-26T06:46:16;1.30;;;1.20;;
1174;SDS011;576;48.418;10.074;2022-12-26T06:48:45;2.13;;;1.70;;
1174;SDS011;576;48.418;10.074;2022-12-26T06:51:14;1.07;;;1.07;;
1174;SDS011;576;48.418;10.074;2022-12-26T06:53:44;1.73;;;1.63;;
1174;SDS011;576;48.418;10.074;2022-12-26T06:56:14;1.40;;;1.30;;
1174;SDS011;576;48.418;10.074;2022-12-26T06:58:43;1.40;;;1.30;;
1174;SDS011;576;48.418;10.074;2022-12-26T07:01:12;1.40;;;1.30;;
1174;SDS011;576;48.418;10.074;2022-12-26T07:03:42;1.30;;;1.30;;
1174;SDS011;576;48.418;10.074;2022-12-26T07:06:19;1.47;;;1.37;;
1174;SDS011;576;48.418;10.074;2022-12-26T07:08:49;1.20;;;1.20;;
1174;SDS011;576;48.418;10.074;2022-12-26T07:11:20;1.60;;;1.50;;
1174;SDS011;576;48.418;10.074;2022-12-26T07:13:50;1.07;;;1.07;;
1174;SDS011;576;48.418;10.074;2022-12-26T07:16:18;1.60;;;1.50;;
1174;SDS011;576;48.418;10.074;2022-12-26T07:18:47;1.73;;;1.33;;
1174;SDS011;576;48.418;10.074;2022-12-26T07:21:15;1.40;;;1.30;;
1174;SDS011;576;48.418;10.074;2022-12-26T07:23:44;2.00;;;1.90;;
1174;SDS011;576;48.418;10.074;2022-12-26T07:26:12;1.23;;;1.13;;
1174;SDS011;576;48.418;10.074;2022-12-26T07:28:42;1.60;;;1.50;;
1174;SDS011;576;48.418;10.074;2022-12-26T07:31:14;1.30;;;1.30;;
1174;SDS011;576;48.418;10.074;2022-12-26T07:33:42;1.60;;;1.50;;
1174;SDS011;576;48.418;10.074;2022-12-26T07:36:15;1.40;;;1.30;;
1174;SDS011;576;48.418;10.074;2022-12-26T07:38:43;1.63;;;1.53;;
1174;SDS011;576;48.418;10.074;2022-12-26T07:41:13;1.80;;;1.70;;
1174;SDS011;576;48.418;10.074;2022-12-26T07:44:00;1.83;;;1.73;;
1174;SDS011;576;48.418;10.074;2022-12-26T07:46:28;1.43;;;1.33;;
1174;SDS011;576;48.418;10.074;2022-12-26T07:48:57;1.10;;;1.10;;
1174;SDS011;576;48.418;10.074;2022-12-26T07:51:25;1.73;;;1.63;;
1174;SDS011;576;48.418;10.074;2022-12-26T07:53:53;1.20;;;1.10;;
1174;SDS011;576;48.418;10.074;2022-12-26T07:56:22;0.90;;;0.90;;
1174;SDS011;576;48.418;10.074;2022-12-26T07:58:50;1.63;;;1.53;;
1174;SDS011;576;48.418;10.074;2022-12-26T08:01:20;1.80;;;1.70;;
1174;SDS011;576;48.418;10.074;2022-12-26T08:03:48;1.50;;;1.40;;
1174;SDS011;576;48.418;10.074;2022-12-26T08:06:17;1.00;;;1.00;;
1174;SDS011;576;48.418;10.074;2022-12-26T08:08:46;1.10;;;1.10;;
1174;SDS011;576;48.418;10.074;2022-12-26T08:11:17;1.40;;;1.30;;
1174;SDS011;576;48.418;10.074;2022-12-26T08:13:47;1.20;;;1.20;;
1174;SDS011;576;48.418;10.074;2022-12-26T08:16:15;1.30;;;1.20;;
1174;SDS011;576;48.418;10.074;2022-12-26T08:18:45;1.30;;;1.20;;
1174;SDS011;576;48.418;10.074;2022-12-26T08:21:13;2.40;;;1.50;;
1174;SDS011;576;48.418;10.074;2022-12-26T08:23:42;1.13;;;1.03;;
1174;SDS011;576;48.418;10.074;2022-12-26T08:26:11;1.20;;;1.20;;
1174;SDS011;576;48.418;10.074;2022-12-26T08:28:45;0.93;;;0.90;;
1174;SDS011;576;48.418;10.074;2022-12-26T08:31:14;1.20;;;1.20;;
1174;SDS011;576;48.418;10.074;2022-12-26T08:33:43;1.50;;;1.40;;
1174;SDS011;576;48.418;10.074;2022-12-26T08:36:12;1.40;;;1.30;;
1174;SDS011;576;48.418;10.074;2022-12-26T08:38:43;1.30;;;1.20;;
1174;SDS011;576;48.418;10.074;2022-12-26T08:41:12;1.23;;;1.23;;
1174;SDS011;576;48.418;10.074;2022-12-26T08:43:42;1.30;;;1.20;;
1174;SDS011;576;48.418;10.074;2022-12-26T08:46:34;1.40;;;1.30;;
1174;SDS011;576;48.418;10.074;2022-12-26T08:49:02;1.50;;;1.40;;
1174;SDS011;576;48.418;10.074;2022-12-26T08:51:32;1.40;;;1.30;;
1174;SDS011;576;48.418;10.074;2022-12-26T08:54:00;1.40;;;1.30;;
1174;SDS011;576;48.418;10.074;2022-12-26T08:56:28;2.10;;;1.30;;
1174;SDS011;576;48.418;10.074;2022-12-26T08:58:57;1.67;;;1.20;;
1174;SDS011;576;48.418;10.074;2022-12-26T09:01:26;1.00;;;1.00;;
1174;SDS011;576;48.418;10.074;2022-12-26T09:03:57;1.27;;;1.17;;
1174;SDS011;576;48.418;10.074;2022-12-26T09:06:27;1.40;;;1.30;;
1174;SDS011;576;48.418;10.074;2022-12-26T09:08:57;1.80;;;1.70;;
1174;SDS011;576;48.418;10.074;2022-12-26T09:11:26;2.50;;;2.30;;
1174;SDS011;576;48.418;10.074;2022-12-26T09:13:55;3.40;;;2.40;;
1174;SDS011;576;48.418;10.074;2022-12-26T09:16:25;2.87;;;2.67;;
1174;SDS011;576;48.418;10.074;2022-12-26T09:19:03;3.10;;;2.90;;
1174;SDS011;576;48.418;10.074;2022-12-26T09:21:32;4.73;;;4.10;;
1174;SDS011;576;48.418;10.074;2022-12-26T09:24:03;4.93;;;3.90;;
1174;SDS011;576;48.418;10.074;2022-12-26T09:26:33;5.17;;;4.67;;
1174;SDS011;576;48.418;10.074;2022-12-26T09:29:03;7.30;;;4.70;;
1174;SDS011;576;48.418;10.074;2022-12-26T09:31:33;5.70;;;4.57;;
1174;SDS011;576;48.418;10.074;2022-12-26T09:34:02;6.13;;;5.00;;
1174;SDS011;576;48.418;10.074;2022-12-26T09:36:33;5.57;;;4.00;;
1174;SDS011;576;48.418;10.074;2022-12-26T09:39:05;5.07;;;4.67;;
1174;SDS011;576;48.418;10.074;2022-12-26T09:41:48;6.50;;;5.80;;
1174;SDS011;576;48.418;10.074;2022-12-26T09:44:27;7.60;;;6.17;;
1174;SDS011;576;48.418;10.074;2022-12-26T09:47:06;6.63;;;5.93;;
1174;SDS011;576;48.418;10.074;2022-12-26T09:49:48;6.90;;;6.10;;
1174;SDS011;576;48.418;10.074;2022-12-26T09:52:22;7.83;;;6.40;;
1174;SDS011;576;48.418;10.074;2022-12-26T09:55:15;7.43;;;6.73;;
1174;SDS011;576;48.418;10.074;2022-12-26T09:57:54;8.20;;;7.43;;
1174;SDS011;576;48.418;10.074;2022-12-26T10:00:27;12.17;;;7.00;;
1174;SDS011;576;48.418;10.074;2022-12-26T10:02:58;8.97;;;7.20;;
1174;SDS011;576;48.418;10.074;2022-12-26T10:05:30;8.17;;;7.23;;
1174;SDS011;576;48.418;10.074;2022-12-26T10:08:07;9.37;;;7.50;;
1174;SDS011;576;48.418;10.074;2022-12-26T10:10:49;8.43;;;7.60;;
1174;SDS011;576;48.418;10.074;2022-12-26T10:13:26;9.20;;;8.30;;
1174;SDS011;576;48.418;10.074;2022-12-26T10:16:02;9.83;;;8.63;;
1174;SDS011;576;48.418;10.074;2022-12-26T10:18:37;9.30;;;8.00;;
1174;SDS011;576;48.418;10.074;2022-12-26T10:21:18;8.80;;;8.00;;
1174;SDS011;576;48.418;10.074;2022-12-26T10:23:58;13.60;;;8.60;;
1174;SDS011;576;48.418;10.074;2022-12-26T10:26:33;9.90;;;7.93;;
1174;SDS011;576;48.418;10.074;2022-12-26T10:29:09;10.43;;;8.40;;
1174;SDS011;576;48.418;10.074;2022-12-26T10:31:46;10.47;;;8.90;;
1174;SDS011;576;48.418;10.074;2022-12-26T10:34:18;10.50;;;8.27;;
1174;SDS011;576;48.418;10.074;2022-12-26T10:36:50;9.00;;;8.20;;
1174;SDS011;576;48.418;10.074;2022-12-26T10:39:25;9.67;;;8.70;;
1174;SDS011;576;48.418;10.074;2022-12-26T10:41:58;10.40;;;8.77;;
1174;SDS011;576;48.418;10.074;2022-12-26T10:44:30;10.60;;;9.50;;
1174;SDS011;576;48.418;10.074;2022-12-26T10:47:10;10.77;;;9.57;;
1174;SDS011;576;48.418;10.074;2022-12-26T10:49:51;10.07;;;9.00;;
1174;SDS011;576;48.418;10.074;2022-12-26T10:52:22;8.60;;;7.90;;
1174;SDS011;576;48.418;10.074;2022-12-26T10:54:54;9.23;;;8.27;;
1174;SDS011;576;48.418;10.074;2022-12-26T10:57:47;9.93;;;8.93;;
1174;SDS011;576;48.418;10.074;2022-12-26T11:00:17;9.13;;;8.23;;
1174;SDS011;576;48.418;10.074;2022-12-26T11:03:00;10.07;;;9.07;;
1174;SDS011;576;48.418;10.074;2022-12-26T11:05:30;12.43;;;9.80;;
1174;SDS011;576;48.418;10.074;2022-12-26T11:08:22;9.67;;;8.73;;
1174;SDS011;576;48.418;10.074;2022-12-26T11:11:00;12.77;;;9.17;;
1174;SDS011;576;48.418;10.074;2022-12-26T11:13:34;12.53;;;9.10;;
1174;SDS011;576;48.418;10.074;2022-12-26T11:16:05;13.80;;;9.90;;
1174;SDS011;576;48.418;10.074;2022-12-26T11:18:35;10.73;;;8.93;;
1174;SDS011;576;48.418;10.074;2022-12-26T11:21:12;9.70;;;8.80;;
1174;SDS011;576;48.418;10.074;2022-12-26T11:23:46;10.77;;;8.97;;
1174;SDS011;576;48.418;10.074;2022-12-26T11:26:19;9.30;;;8.40;;
1174;SDS011;576;48.418;10.074;2022-12-26T11:29:03;9.93;;;8.43;;
1174;SDS011;576;48.418;10.074;2022-12-26T11:31:32;12.10;;;9.00;;
1174;SDS011;576;48.418;10.074;2022-12-26T11:34:01;9.73;;;8.73;;
1174;SDS011;576;48.418;10.074;2022-12-26T11:36:36;10.10;;;9.10;;
1174;SDS011;576;48.418;10.074;2022-12-26T11:39:17;9.70;;;8.70;;
1174;SDS011;576;48.418;10.074;2022-12-26T11:41:49;10.00;;;7.80;;
1174;SDS011;576;48.418;10.074;2022-12-26T11:44:21;9.10;;;8.33;;
1174;SDS011;576;48.418;10.074;2022-12-26T11:46:54;9.00;;;8.20;;
1174;SDS011;576;48.418;10.074;2022-12-26T11:49:28;9.70;;;8.90;;
1174;SDS011;576;48.418;10.074;2022-12-26T11:52:00;9.67;;;8.87;;
1174;SDS011;576;48.418;10.074;2022-12-26T11:54:32;9.60;;;8.70;;
1174;SDS011;576;48.418;10.074;2022-12-26T11:57:03;8.87;;;7.97;;
1174;SDS011;576;48.418;10.074;2022-12-26T11:59:40;8.90;;;8.10;;
1174;SDS011;576;48.418;10.074;2022-12-26T12:02:20;9.27;;;7.40;;
1174;SDS011;576;48.418;10.074;2022-12-26T12:04:54;8.93;;;8.03;;
1174;SDS011;576;48.418;10.074;2022-12-26T12:10:36;10.97;;;8.50;;
1174;SDS011;576;48.418;10.074;2022-12-26T12:13:32;9.27;;;8.30;;
1174;SDS011;576;48.418;10.074;2022-12-26T12:16:14;8.60;;;7.80;;
1174;SDS011;576;48.418;10.074;2022-12-26T12:18:59;8.07;;;7.37;;
1174;SDS011;576;48.418;10.074;2022-12-26T12:21:36;10.00;;;7.93;;
1174;SDS011;576;48.418;10.074;2022-12-26T12:24:18;9.17;;;7.63;;
1174;SDS011;576;48.418;10.074;2022-12-26T12:27:06;9.40;;;7.70;;
1174;SDS011;576;48.418;10.074;2022-12-26T12:29:45;8.57;;;7.70;;
1174;SDS011;576;48.418;10.074;2022-12-26T12:32:30;8.13;;;7.33;;
1174;SDS011;576;48.418;10.074;2022-12-26T12:35:17;8.93;;;8.00;;
1174;SDS011;576;48.418;10.074;2022-12-26T12:37:58;8.47;;;7.60;;
1174;SDS011;576;48.418;10.074;2022-12-26T12:40:43;7.13;;;6.43;;
1174;SDS011;576;48.418;10.074;2022-12-26T12:43:19;6.73;;;6.13;;
1174;SDS011;576;48.418;10.074;2022-12-26T12:45:55;7.30;;;6.57;;
1174;SDS011;576;48.418;10.074;2022-12-26T12:48:36;6.27;;;5.77;;
1174;SDS011;576;48.418;10.074;2022-12-26T12:51:16;6.87;;;6.20;;
1174;SDS011;576;48.418;10.074;2022-12-26T12:53:56;9.77;;;6.13;;
1174;SDS011;576;48.418;10.074;2022-12-26T12:56:47;7.77;;;6.70;;
1174;SDS011;576;48.418;10.074;2022-12-26T12:59:24;6.50;;;5.90;;
1174;SDS011;576;48.418;10.074;2022-12-26T13:02:00;7.60;;;7.00;;
1174;SDS011;576;48.418;10.074;2022-12-26T13:04:40;6.60;;;5.60;;
1174;SDS011;576;48.418;10.074;2022-12-26T13:07:17;9.23;;;5.33;;
1174;SDS011;576;48.418;10.074;2022-12-26T13:09:51;5.93;;;5.43;;
1174;SDS011;576;48.418;10.074;2022-12-26T13:12:25;6.13;;;5.53;;
1174;SDS011;576;48.418;10.074;2022-12-26T13:14:56;6.53;;;4.93;;
1174;SDS011;576;48.418;10.074;2022-12-26T13:17:29;5.70;;;5.20;;
1174;SDS011;576;48.418;10.074;2022-12-26T13:20:04;5.60;;;4.93;;
1174;SDS011;576;48.418;10.074;2022-12-26T13:22:42;5.17;;;4.67;;
1174;SDS011;576;48.418;10.074;2022-12-26T13:25:32;5.00;;;4.50;;
1174;SDS011;576;48.418;10.074;2022-12-26T13:28:09;6.13;;;5.53;;
1174;SDS011;576;48.418;10.074;2022-12-26T13:30:42;5.10;;;4.70;;
1174;SDS011;576;48.418;10.074;2022-12-26T13:33:12;5.83;;;4.50;;
1174;SDS011;576;48.418;10.074;2022-12-26T13:35:51;5.10;;;4.70;;
1174;SDS011;576;48.418;10.074;2022-12-26T13:38:23;5.10;;;4.60;;
1174;SDS011;576;48.418;10.074;2022-12-26T13:41:19;4.50;;;4.17;;
1174;SDS011;576;48.418;10.074;2022-12-26T13:44:07;4.10;;;3.80;;
1174;SDS011;576;48.418;10.074;2022-12-26T13:46:53;4.93;;;4.40;;
1174;SDS011;576;48.418;10.074;2022-12-26T13:49:27;6.10;;;4.03;;
1174;SDS011;576;48.418;10.074;2022-12-26T14:01:15;4.20;;;3.80;;
1174;SDS011;576;48.418;10.074;2022-12-26T14:03:59;3.77;;;3.47;;
1174;SDS011;576;48.418;10.074;2022-12-26T14:06:49;4.77;;;4.13;;
1174;SDS011;576;48.418;10.074;2022-12-26T14:09:37;3.10;;;2.90;;
1174;SDS011;576;48.418;10.074;2022-12-26T14:12:21;3.30;;;3.00;;
1174;SDS011;576;48.418;10.074;2022-12-26T14:15:24;6.37;;;3.47;;
1174;SDS011;576;48.418;10.074;2022-12-26T14:18:02;4.23;;;3.87;;
1174;SDS011;576;48.418;10.074;2022-12-26T14:20:43;5.00;;;3.80;;
1174;SDS011;576;48.418;10.074;2022-12-26T14:23:21;4.80;;;3.70;;
1174;SDS011;576;48.418;10.074;2022-12-26T14:26:06;5.07;;;3.47;;
1174;SDS011;576;48.418;10.074;2022-12-26T14:28:51;3.40;;;3.10;;
1174;SDS011;576;48.418;10.074;2022-12-26T14:31:29;3.17;;;2.87;;
1174;SDS011;576;48.418;10.074;2022-12-26T14:34:05;4.10;;;3.10;;
1174;SDS011;576;48.418;10.074;2022-12-26T14:36:43;3.07;;;2.87;;
1174;SDS011;576;48.418;10.074;2022-12-26T14:39:19;2.70;;;2.50;;
1174;SDS011;576;48.418;10.074;2022-12-26T15:06:14;2.40;;;2.30;;
1174;SDS011;576;48.418;10.074;2022-12-26T15:09:05;3.13;;;2.30;;
1174;SDS011;576;48.418;10.074;2022-12-26T15:11:56;2.73;;;2.53;;
1174;SDS011;576;48.418;10.074;2022-12-26T15:17:42;2.70;;;2.50;;
1174;SDS011;576;48.418;10.074;2022-12-26T15:20:26;2.93;;;2.73;;
1174;SDS011;576;48.418;10.074;2022-12-26T15:23:35;2.37;;;2.17;;
1174;SDS011;576;48.418;10.074;2022-12-26T15:29:30;2.60;;;2.50;;
1174;SDS011;576;48.418;10.074;2022-12-26T15:32:08;2.20;;;2.00;;
1174;SDS011;576;48.418;10.074;2022-12-26T15:34:46;3.10;;;2.77;;
1174;SDS011;576;48.418;10.074;2022-12-26T15:37:29;2.80;;;2.60;;
1174;SDS011;576;48.418;10.074;2022-12-26T15:40:10;2.77;;;2.57;;
1174;SDS011;576;48.418;10.074;2022-12-26T15:42:44;2.47;;;2.27;;
1174;SDS011;576;48.418;10.074;2022-12-26T15:45:34;2.00;;;1.90;;
1174;SDS011;576;48.418;10.074;2022-12-26T15:48:13;3.23;;;2.53;;
1174;SDS011;576;48.418;10.074;2022-12-26T15:50:55;5.00;;;2.57;;
1174;SDS011;576;48.418;10.074;2022-12-26T15:53:32;4.10;;;2.43;;
1174;SDS011;576;48.418;10.074;2022-12-26T15:56:15;2.13;;;2.03;;
1174;SDS011;576;48.418;10.074;2022-12-26T16:02:28;2.10;;;2.00;;
1174;SDS011;576;48.418;10.074;2022-12-26T16:05:03;2.07;;;1.97;;
1174;SDS011;576;48.418;10.074;2022-12-26T16:07:48;4.00;;;2.37;;
1174;SDS011;576;48.418;10.074;2022-12-26T16:10:29;2.27;;;2.07;;
1174;SDS011;576;48.418;10.074;2022-12-26T16:13:14;3.90;;;2.40;;
1174;SDS011;576;48.418;10.074;2022-12-26T16:15:49;1.83;;;1.73;;
1174;SDS011;576;48.418;10.074;2022-12-26T16:18:19;1.93;;;1.83;;
1174;SDS011;576;48.418;10.074;2022-12-26T16:20:50;2.13;;;2.03;;
1174;SDS011;576;48.418;10.074;2022-12-26T16:23:38;3.23;;;1.90;;
1174;SDS011;576;48.418;10.074;2022-12-26T16:26:13;2.17;;;2.07;;
1174;SDS011;576;48.418;10.074;2022-12-26T16:28:44;2.30;;;2.20;;
1174;SDS011;576;48.418;10.074;2022-12-26T16:31:15;1.90;;;1.80;;
1174;SDS011;576;48.418;10.074;2022-12-26T16:33:46;1.73;;;1.63;;
1174;SDS011;576;48.418;10.074;2022-12-26T16:36:15;2.40;;;2.20;;
1174;SDS011;576;48.418;10.074;2022-12-26T16:38:47;2.20;;;2.00;;
1174;SDS011;576;48.418;10.074;2022-12-26T16:41:18;2.40;;;2.27;;
1174;SDS011;576;48.418;10.074;2022-12-26T16:43:49;2.03;;;1.93;;
1174;SDS011;576;48.418;10.074;2022-12-26T16:46:19;2.60;;;2.13;;
1174;SDS011;576;48.418;10.074;2022-12-26T16:48:52;1.97;;;1.77;;
1174;SDS011;576;48.418;10.074;2022-12-26T16:51:29;2.60;;;2.20;;
1174;SDS011;576;48.418;10.074;2022-12-26T16:54:14;1.93;;;1.83;;
1174;SDS011;576;48.418;10.074;2022-12-26T16:56:47;2.70;;;2.00;;
1174;SDS011;576;48.418;10.074;2022-12-26T16:59:18;1.87;;;1.77;;
1174;SDS011;576;48.418;10.074;2022-12-26T17:01:48;2.83;;;1.87;;
1174;SDS011;576;48.418;10.074;2022-12-26T17:04:18;1.97;;;1.87;;
1174;SDS011;576;48.418;10.074;2022-12-26T17:06:50;2.13;;;1.67;;